Lakeview, North Carolina
Current Conditions -  °F | °C
As of 2:35 PM on Saturday 25 Oct 2014 (Local Time) from KSOP Reporting Station
Clear Clear  
Wind Chill: 70°   Ceiling: Unl
Heat Index: 70°   Visibility: 10mi
Dew Point: 39°   Wind: 6mph
Humidity: 33%   Direction: 320°NW
Pressure: 29.96"   Gusts: NA
Location:  35.24°N, 79.31°W
Report Text: KSOP 251835Z AUTO 32005KT 10SM CLR 21/04 A2996 RMK AO1
Loading
Personal Weather Stations






























Interactive Weather Map
Tropical Storm Tracking
New forecast layout! Learn more

10-Day Weather Forecast

Advertisements
Track Severe Weather on mobile